Time;durP1;ratioP1;P1;durP2;ratioP2;P2;SDS_P1;SDS_P2;PMS_P1;PMS_P2;Temp;Humidity;BMP_temperature;BMP_pressure;BME280_temperature;BME280_humidity;BME280_pressure;Samples;Min_cycle;Max_cycle;Signal;HPM_P1;HPM_P2
2022/11/23 00:01:13;;;;;;;44.07;12.67;;;;;;;2.15;100.00;99783.63;5095395;28;20452;-69
2022/11/23 00:03:40;;;;;;;47.07;13.90;;;;;;;2.20;100.00;99785.50;5096784;28;20527;-69
2022/11/23 00:06:06;;;;;;;32.57;14.73;;;;;;;2.30;100.00;99782.03;5097054;28;21009;-69
2022/11/23 00:08:33;;;;;;;32.93;14.20;;;;;;;2.31;100.00;99789.03;5096071;28;20500;-69
2022/11/23 00:11:00;;;;;;;32.83;15.00;;;;;;;2.33;100.00;99784.19;5096286;28;20526;-69
2022/11/23 00:13:28;;;;;;;36.80;15.30;;;;;;;2.39;100.00;99789.28;5095612;28;20445;-69
2022/11/23 00:15:54;;;;;;;40.23;15.60;;;;;;;2.42;100.00;99785.28;5098099;28;20468;-69
2022/11/23 00:18:21;;;;;;;28.47;13.63;;;;;;;2.48;100.00;99782.34;5096548;28;20436;-69
2022/11/23 00:20:48;;;;;;;35.17;15.00;;;;;;;2.50;100.00;99782.06;5096762;28;20452;-68
2022/11/23 00:23:14;;;;;;;32.90;12.70;;;;;;;2.49;100.00;99788.50;5096422;28;20523;-69
2022/11/23 00:25:45;;;;;;;36.00;14.23;;;;;;;2.47;100.00;99787.94;5097188;28;20574;-69
2022/11/23 00:28:11;;;;;;;43.03;13.80;;;;;;;2.50;100.00;99787.41;5096366;28;20497;-68
2022/11/23 00:30:39;;;;;;;28.60;12.73;;;;;;;2.47;100.00;99787.94;5095626;28;20487;-69
2022/11/23 00:33:06;;;;;;;35.77;14.43;;;;;;;2.43;100.00;99782.31;5095968;28;20523;-69
2022/11/23 00:35:32;;;;;;;33.03;13.27;;;;;;;2.48;100.00;99784.22;5097731;28;20513;-69
2022/11/23 00:37:59;;;;;;;31.70;14.13;;;;;;;2.44;100.00;99791.16;5096001;28;20443;-69
2022/11/23 00:40:25;;;;;;;37.77;14.23;;;;;;;2.41;100.00;99797.84;5094982;28;20456;-69
2022/11/23 00:42:52;;;;;;;40.00;14.77;;;;;;;2.35;100.00;99792.75;5096005;28;20531;-69
2022/11/23 00:45:19;;;;;;;40.00;14.13;;;;;;;2.38;100.00;99793.00;5094340;28;21035;-68
2022/11/23 00:47:47;;;;;;;33.73;13.33;;;;;;;2.34;100.00;99807.16;5097147;28;20812;-69
2022/11/23 00:50:13;;;;;;;35.33;12.30;;;;;;;2.35;100.00;99804.25;5094482;28;20500;-67
2022/11/23 00:52:40;;;;;;;35.97;12.30;;;;;;;2.31;100.00;99813.88;5095811;28;20459;-69
2022/11/23 00:55:07;;;;;;;31.43;12.80;;;;;;;2.36;100.00;99805.84;5094610;28;20855;-69
2022/11/23 00:57:34;;;;;;;34.20;14.07;;;;;;;2.47;100.00;99812.78;5098832;28;20491;-69
2022/11/23 01:00:01;;;;;;;41.73;14.17;;;;;;;2.52;100.00;99809.31;5109568;28;20436;-69
2022/11/23 01:02:27;;;;;;;36.63;14.67;;;;;;;2.56;100.00;99805.03;5096278;28;20622;-69
2022/11/23 01:04:55;;;;;;;28.03;12.83;;;;;;;2.60;100.00;99808.78;5083824;28;20551;-69
2022/11/23 01:07:21;;;;;;;30.73;12.47;;;;;;;2.67;100.00;99812.00;5095990;28;20448;-69
2022/11/23 01:09:48;;;;;;;30.20;12.70;;;;;;;2.71;100.00;99809.59;5096409;28;20569;-69
2022/11/23 01:12:15;;;;;;;38.70;15.57;;;;;;;2.75;100.00;99808.00;5094660;28;20450;-69
2022/11/23 01:14:41;;;;;;;32.33;13.90;;;;;;;2.76;100.00;99805.06;5095648;28;20543;-69
2022/11/23 01:17:08;;;;;;;35.07;11.60;;;;;;;2.74;100.00;99801.03;5094727;28;20444;-69
2022/11/23 01:19:34;;;;;;;27.20;11.77;;;;;;;2.76;100.00;99804.25;5095104;28;20487;-69
2022/11/23 01:22:02;;;;;;;32.77;13.70;;;;;;;2.81;100.00;99801.56;5095361;28;20469;-69
2022/11/23 01:24:29;;;;;;;28.70;12.43;;;;;;;2.83;100.00;99809.31;5094402;28;20910;-69
2022/11/23 01:26:56;;;;;;;35.73;13.10;;;;;;;2.89;100.00;99805.59;5094938;28;20453;-69
2022/11/23 01:29:23;;;;;;;28.70;12.70;;;;;;;2.87;100.00;99805.84;5096982;28;20877;-69
2022/11/23 01:31:49;;;;;;;31.80;13.60;;;;;;;2.86;100.00;99804.25;5095166;28;20432;-69
2022/11/23 01:34:16;;;;;;;36.30;13.67;;;;;;;2.85;100.00;99812.53;5094629;28;20476;-69
2022/11/23 01:36:43;;;;;;;36.30;13.00;;;;;;;2.81;100.00;99811.47;5095088;28;20476;-69
2022/11/23 01:39:12;;;;;;;29.23;12.67;;;;;;;2.80;100.00;99815.22;5096381;28;20452;-69
2022/11/23 01:41:40;;;;;;;28.43;12.20;;;;;;;2.82;100.00;99810.41;5094959;28;20447;-69
2022/11/23 01:44:23;;;;;;;33.23;13.63;;;;;;;2.87;100.00;99808.50;5093416;28;20985;-69
2022/11/23 01:46:50;;;;;;;27.00;11.53;;;;;;;2.88;100.00;99811.97;5094897;28;20449;-68
2022/11/23 01:49:17;;;;;;;30.07;12.73;;;;;;;2.87;100.00;99819.22;5096262;28;20456;-69
2022/11/23 01:51:46;;;;;;;35.37;14.40;;;;;;;2.83;100.00;99820.00;5093942;28;21029;-69
2022/11/23 01:54:18;;;;;;;35.50;12.90;;;;;;;2.89;100.00;99822.44;5094066;28;20468;-70
2022/11/23 01:56:50;;;;;;;34.57;13.20;;;;;;;2.96;100.00;99819.47;5094488;28;20417;-70
2022/11/23 01:59:19;;;;;;;41.30;13.60;;;;;;;3.03;100.00;99828.81;5095836;28;20499;-70
2022/11/23 02:01:46;;;;;;;28.90;11.97;;;;;;;3.08;100.00;99828.00;5094222;28;20451;-69
2022/11/23 02:04:17;;;;;;;37.93;13.10;;;;;;;3.10;100.00;99820.53;5093829;28;20506;-69
2022/11/23 02:06:46;;;;;;;35.50;13.93;;;;;;;3.08;100.00;99820.00;5093665;28;20535;-70
2022/11/23 02:09:16;;;;;;;27.87;12.60;;;;;;;3.13;100.00;99819.19;5094117;28;20944;-69
2022/11/23 02:11:43;;;;;;;37.17;14.57;;;;;;;3.20;100.00;99822.38;5093186;28;20571;-69
2022/11/23 02:14:10;;;;;;;32.20;11.47;;;;;;;3.20;100.00;99822.38;5094300;28;20468;-69
2022/11/23 02:16:38;;;;;;;36.10;12.13;;;;;;;3.21;100.00;99822.09;5095393;28;20551;-69
2022/11/23 02:19:08;;;;;;;25.03;12.10;;;;;;;3.24;100.00;99810.88;5094286;28;20476;-69
2022/11/23 02:21:35;;;;;;;34.47;12.73;;;;;;;3.23;100.00;99817.31;5093400;28;20912;-69
2022/11/23 02:24:07;;;;;;;34.10;13.63;;;;;;;3.16;100.00;99803.41;5094121;28;20451;-69
2022/11/23 02:26:36;;;;;;;27.30;13.83;;;;;;;3.12;100.00;99802.31;5095346;28;20503;-69
2022/11/23 02:29:06;;;;;;;45.57;13.80;;;;;;;3.08;100.00;99798.59;5093751;28;20472;-69
2022/11/23 02:31:33;;;;;;;32.73;13.67;;;;;;;3.02;100.00;99797.81;5093357;28;20571;-69
2022/11/23 02:34:00;;;;;;;29.60;12.10;;;;;;;3.07;100.00;99804.22;5093912;28;20441;-69
2022/11/23 02:36:39;;;;;;;29.33;12.33;;;;;;;3.01;100.00;99801.56;5095515;28;20499;-69
2022/11/23 02:39:09;;;;;;;26.40;12.13;;;;;;;3.00;100.00;99796.47;5093735;28;20531;-69
2022/11/23 02:41:39;;;;;;;26.30;12.43;;;;;;;3.06;100.00;99803.44;5092717;28;20457;-69
2022/11/23 02:44:15;;;;;;;29.30;12.30;;;;;;;3.03;100.00;99803.94;5093770;28;20428;-69
2022/11/23 02:46:41;;;;;;;30.80;11.37;;;;;;;2.96;100.00;99803.41;5095538;28;20530;-69
2022/11/23 02:49:08;;;;;;;30.23;11.23;;;;;;;2.93;100.00;99812.00;5093383;28;20484;-70
2022/11/23 02:51:35;;;;;;;31.30;12.40;;;;;;;2.98;100.00;99806.63;5092992;28;20580;-71
2022/11/23 02:54:01;;;;;;;25.67;12.73;;;;;;;2.98;100.00;99806.63;5093651;28;20446;-70
2022/11/23 02:56:28;;;;;;;35.87;13.60;;;;;;;3.04;100.00;99810.91;5095563;28;20456;-70
2022/11/23 02:58:56;;;;;;;23.67;11.77;;;;;;;3.11;100.00;99810.63;5093608;28;20475;-68
2022/11/23 03:01:22;;;;;;;30.03;12.30;;;;;;;3.11;100.00;99808.75;5092292;28;20540;-69
2022/11/23 03:03:49;;;;;;;34.23;11.93;;;;;;;3.12;100.00;99809.56;5090580;28;20467;-68
2022/11/23 03:06:15;;;;;;;29.77;10.87;;;;;;;3.17;100.00;99810.34;5092623;28;21001;-69
2022/11/23 03:08:42;;;;;;;33.50;12.27;;;;;;;3.19;100.00;99816.25;5094229;28;20526;-69
2022/11/23 03:11:08;;;;;;;35.43;13.13;;;;;;;3.22;100.00;99823.69;5092590;28;20890;-69
2022/11/23 03:13:35;;;;;;;25.67;11.30;;;;;;;3.17;100.00;99821.03;5092802;28;20823;-69
2022/11/23 03:16:03;;;;;;;25.13;11.47;;;;;;;3.17;100.00;99820.25;5092862;28;20495;-69
2022/11/23 03:18:30;;;;;;;32.53;13.50;;;;;;;3.14;100.00;99816.22;5093539;28;20931;-69
2022/11/23 03:21:02;;;;;;;42.80;12.80;;;;;;;3.02;100.00;99823.75;5093344;28;20470;-69
2022/11/23 03:23:28;;;;;;;24.43;12.27;;;;;;;3.04;100.00;99817.03;5092950;28;20543;-69
2022/11/23 03:25:55;;;;;;;42.10;12.80;;;;;;;3.09;100.00;99821.59;5093335;28;20483;-69
2022/11/23 03:28:22;;;;;;;32.77;12.47;;;;;;;3.01;100.00;99827.47;5092283;28;21048;-69
2022/11/23 03:30:49;;;;;;;28.20;10.50;;;;;;;3.04;100.00;99816.25;5092749;28;20506;-68
2022/11/23 03:33:17;;;;;;;28.57;11.13;;;;;;;2.97;100.00;99826.44;5092137;28;20615;-69
2022/11/23 03:35:44;;;;;;;34.33;13.20;;;;;;;2.96;100.00;99819.47;5092324;28;20460;-68
2022/11/23 03:38:11;;;;;;;27.27;11.67;;;;;;;2.90;100.00;99818.69;5072874;28;20793;-69
2022/11/23 03:40:38;;;;;;;27.43;10.80;;;;;;;2.84;100.00;99821.63;5072951;28;20464;-68
2022/11/23 03:43:05;;;;;;;22.07;10.13;;;;;;;2.76;100.00;99826.44;5091384;28;20567;-69
2022/11/23 03:45:31;;;;;;;26.10;10.47;;;;;;;2.77;100.00;99822.69;5092539;28;20972;-69
2022/11/23 03:47:58;;;;;;;24.30;9.60;;;;;;;2.78;100.00;99821.63;5090866;28;20551;-69
2022/11/23 03:50:28;;;;;;;29.10;10.63;;;;;;;2.80;100.00;99820.56;5092493;28;20579;-68
2022/11/23 03:52:55;;;;;;;23.70;9.40;;;;;;;2.78;100.00;99820.81;5094742;28;20459;-68
2022/11/23 03:55:21;;;;;;;20.90;9.87;;;;;;;2.78;100.00;99823.50;5092882;28;20471;-68
2022/11/23 03:57:49;;;;;;;33.13;12.87;;;;;;;2.82;100.00;99815.75;5095233;28;21023;-69
2022/11/23 04:00:16;;;;;;;27.30;13.10;;;;;;;2.80;100.00;99824.03;5092672;28;20939;-68
2022/11/23 04:02:43;;;;;;;25.83;11.67;;;;;;;2.83;100.00;99828.03;5094947;28;20449;-69
2022/11/23 04:05:10;;;;;;;35.10;12.70;;;;;;;2.81;100.00;99838.22;5092590;28;21042;-69
2022/11/23 04:07:38;;;;;;;27.77;10.60;;;;;;;2.89;100.00;99838.47;5092530;28;20582;-69
2022/11/23 04:10:05;;;;;;;26.50;10.77;;;;;;;2.89;100.00;99827.78;5092040;28;20487;-69
2022/11/23 04:12:32;;;;;;;24.83;10.13;;;;;;;2.92;100.00;99827.25;5093385;28;20518;-69
2022/11/23 04:14:58;;;;;;;26.57;12.20;;;;;;;2.97;100.00;99829.13;5093890;28;20464;-69
2022/11/23 04:17:25;;;;;;;26.77;11.13;;;;;;;3.06;100.00;99830.19;5076361;28;20869;-69
2022/11/23 04:19:51;;;;;;;26.10;11.40;;;;;;;3.06;100.00;99819.47;5076313;28;20443;-69
2022/11/23 04:22:18;;;;;;;33.50;11.77;;;;;;;3.09;100.00;99824.25;5094997;28;20491;-69
2022/11/23 04:24:46;;;;;;;26.23;11.17;;;;;;;3.13;100.00;99824.53;5098354;28;20938;-69
2022/11/23 04:27:12;;;;;;;28.77;9.57;;;;;;;3.14;100.00;99824.25;5096122;28;20460;-68
2022/11/23 04:29:39;;;;;;;32.13;11.03;;;;;;;3.23;100.00;99828.00;5096373;28;20526;-68
2022/11/23 04:32:05;;;;;;;24.43;10.20;;;;;;;3.23;100.00;99824.50;5095668;28;20558;-68
2022/11/23 04:34:32;;;;;;;30.03;10.77;;;;;;;3.20;100.00;99817.03;5097642;28;20559;-68
2022/11/23 04:36:59;;;;;;;22.30;10.60;;;;;;;3.14;100.00;99821.56;5096237;28;20489;-69
2022/11/23 04:39:25;;;;;;;27.70;11.47;;;;;;;3.11;100.00;99824.81;5095205;28;20884;-68
2022/11/23 04:41:53;;;;;;;39.73;12.50;;;;;;;3.11;100.00;99827.50;5095545;28;20460;-68
2022/11/23 04:44:21;;;;;;;38.70;12.73;;;;;;;3.10;100.00;99835.75;5095194;28;20483;-70
2022/11/23 04:46:49;;;;;;;24.83;10.43;;;;;;;3.09;100.00;99823.47;5095734;28;20851;-69
2022/11/23 04:49:16;;;;;;;21.30;9.47;;;;;;;3.10;100.00;99831.25;5095357;28;20566;-69
2022/11/23 04:51:42;;;;;;;38.07;12.00;;;;;;;3.10;100.00;99823.22;5095889;28;20480;-69
2022/11/23 04:54:09;;;;;;;31.27;10.97;;;;;;;3.04;100.00;99832.31;5098033;28;20547;-69
2022/11/23 04:56:36;;;;;;;23.93;9.73;;;;;;;3.01;100.00;99830.97;5095784;28;20536;-69
2022/11/23 04:59:04;;;;;;;28.17;11.70;;;;;;;3.02;100.00;99834.47;5097646;28;20456;-69
2022/11/23 05:01:30;;;;;;;29.47;10.90;;;;;;;2.95;100.00;99823.22;5109079;28;20566;-69
2022/11/23 05:03:57;;;;;;;30.47;12.23;;;;;;;2.96;100.00;99824.81;5095124;28;20445;-69
2022/11/23 05:06:24;;;;;;;28.33;11.17;;;;;;;2.97;100.00;99831.78;5083742;28;20494;-69
2022/11/23 05:08:51;;;;;;;28.47;10.40;;;;;;;2.97;100.00;99832.59;5095632;28;20443;-69
2022/11/23 05:11:18;;;;;;;30.80;13.03;;;;;;;2.98;100.00;99828.84;5096689;28;20864;-69
2022/11/23 05:13:45;;;;;;;22.10;10.50;;;;;;;2.98;100.00;99830.72;5106534;22;20489;-79
2022/11/23 05:16:13;;;;;;;27.03;11.53;;;;;;;3.02;100.00;99821.88;5098113;28;20526;-79
2022/11/23 05:18:40;;;;;;;25.43;10.70;;;;;;;3.04;100.00;99832.31;5098925;28;20933;-78
2022/11/23 05:21:06;;;;;;;31.60;11.77;;;;;;;3.01;100.00;99828.31;5092190;28;20531;-77
2022/11/23 05:23:33;;;;;;;29.63;11.90;;;;;;;2.98;100.00;99822.69;5096341;28;20535;-77
2022/11/23 05:25:59;;;;;;;31.60;13.10;;;;;;;2.99;100.00;99818.94;5093709;28;20559;-77
2022/11/23 05:28:26;;;;;;;30.80;10.80;;;;;;;3.05;100.00;99825.88;5096170;28;20540;-77
2022/11/23 05:30:53;;;;;;;23.23;10.03;;;;;;;2.96;100.00;99825.63;5091483;28;20506;-77
2022/11/23 05:33:21;;;;;;;24.40;10.40;;;;;;;2.96;100.00;99827.50;5096298;28;20561;-77
2022/11/23 05:35:48;;;;;;;23.20;10.00;;;;;;;2.90;100.00;99823.22;5095087;28;20567;-77
2022/11/23 05:38:14;;;;;;;24.67;9.53;;;;;;;2.83;100.00;99831.50;5095312;28;20912;-77
2022/11/23 05:40:41;;;;;;;21.67;9.60;;;;;;;2.70;100.00;99832.03;5066116;28;21031;-77
2022/11/23 05:43:08;;;;;;;22.07;10.30;;;;;;;2.60;100.00;99822.16;5055622;28;20445;-77
2022/11/23 05:45:34;;;;;;;26.87;11.90;;;;;;;2.51;100.00;99813.88;5081188;28;20475;-77
2022/11/23 05:48:01;;;;;;;25.20;10.97;;;;;;;2.45;100.00;99822.16;5095475;28;20504;-77
2022/11/23 05:50:30;;;;;;;24.47;11.90;;;;;;;2.40;100.00;99816.81;5091004;28;20590;-77
2022/11/23 05:52:56;;;;;;;22.50;11.40;;;;;;;2.42;100.00;99817.34;5095451;28;20789;-77
2022/11/23 05:55:23;;;;;;;30.20;12.60;;;;;;;2.39;100.00;99825.88;5082544;28;20842;-77
2022/11/23 05:57:50;;;;;;;17.77;9.17;;;;;;;2.46;100.00;99853.16;5074983;28;20524;-77
2022/11/23 06:00:17;;;;;;;28.77;10.83;;;;;;;2.56;100.00;99831.78;5076602;28;20560;-77
2022/11/23 06:02:44;;;;;;;21.50;9.70;;;;;;;2.55;100.00;99843.53;5095320;28;20519;-77
2022/11/23 06:05:11;;;;;;;30.17;10.63;;;;;;;2.52;100.00;99846.75;5095092;28;20909;-77
2022/11/23 06:07:39;;;;;;;19.97;9.33;;;;;;;2.56;100.00;99847.00;5095363;28;20519;-77
2022/11/23 06:10:07;;;;;;;24.57;9.37;;;;;;;2.60;100.00;99850.75;5085552;28;20524;-77
2022/11/23 06:12:34;;;;;;;28.23;10.77;;;;;;;2.63;100.00;99837.66;5075501;28;20940;-77
2022/11/23 06:15:00;;;;;;;31.87;11.20;;;;;;;2.67;100.00;99845.97;5083634;28;20547;-77
2022/11/23 06:17:27;;;;;;;27.03;10.93;;;;;;;2.67;100.00;99837.94;5094763;28;20444;-78
2022/11/23 06:19:53;;;;;;;25.13;9.77;;;;;;;2.76;100.00;99842.50;5087204;28;20578;-77
2022/11/23 06:22:20;;;;;;;31.00;11.63;;;;;;;2.81;100.00;99841.69;5075200;28;20520;-77
2022/11/23 06:24:48;;;;;;;19.07;9.10;;;;;;;2.77;100.00;99843.28;5074792;28;20457;-77
2022/11/23 06:27:16;;;;;;;31.80;11.80;;;;;;;2.67;100.00;99849.44;5075023;28;20461;-77
2022/11/23 06:29:43;;;;;;;24.50;10.10;;;;;;;2.65;100.00;99850.75;5077063;28;20496;-77
2022/11/23 06:32:09;;;;;;;27.60;9.40;;;;;;;2.67;100.00;99849.44;5073816;28;20583;-78
2022/11/23 06:34:36;;;;;;;25.33;10.40;;;;;;;2.65;100.00;99851.56;5074746;28;20532;-78
2022/11/23 06:37:03;;;;;;;30.13;10.87;;;;;;;2.66;100.00;99853.19;5087379;28;20935;-77
2022/11/23 06:39:29;;;;;;;25.77;10.43;;;;;;;2.64;100.00;99846.50;5091834;28;20873;-77
2022/11/23 06:41:57;;;;;;;25.30;10.30;;;;;;;2.69;100.00;99857.97;5093766;28;20543;-77
2022/11/23 06:44:24;;;;;;;26.97;10.50;;;;;;;2.71;100.00;99853.19;5085307;28;20602;-77
2022/11/23 06:46:51;;;;;;;24.30;9.63;;;;;;;2.73;100.00;99859.06;5073419;28;20594;-77
2022/11/23 06:49:19;;;;;;;24.23;10.00;;;;;;;2.81;100.00;99860.41;5084483;28;20551;-78
2022/11/23 06:51:46;;;;;;;23.40;9.67;;;;;;;2.82;100.00;99861.19;5094232;28;20487;-77
2022/11/23 06:54:12;;;;;;;31.97;10.70;;;;;;;2.87;100.00;99863.88;5092894;28;20543;-77
2022/11/23 06:56:39;;;;;;;24.00;10.00;;;;;;;2.87;100.00;99867.34;5093373;28;20625;-77
2022/11/23 06:59:07;;;;;;;27.47;11.30;;;;;;;2.90;100.00;99860.66;5092546;28;21004;-77
2022/11/23 07:01:34;;;;;;;21.90;10.33;;;;;;;2.93;100.00;99860.94;5094097;28;20546;-76
2022/11/23 07:04:00;;;;;;;22.27;8.90;;;;;;;2.95;100.00;99861.47;5091363;28;20539;-76
2022/11/23 07:06:27;;;;;;;21.50;9.97;;;;;;;2.94;100.00;99865.22;5093946;28;20556;-76
2022/11/23 07:08:54;;;;;;;23.03;8.53;;;;;;;2.98;100.00;99860.13;5092837;28;20549;-76
2022/11/23 07:11:21;;;;;;;21.40;11.00;;;;;;;2.92;100.00;99866.53;5094546;28;20520;-76
2022/11/23 07:13:48;;;;;;;22.13;9.90;;;;;;;2.96;100.00;99878.31;5073352;28;20627;-77
2022/11/23 07:16:16;;;;;;;23.83;10.83;;;;;;;2.85;100.00;99874.06;5091704;28;20543;-76
2022/11/23 07:18:42;;;;;;;24.77;10.87;;;;;;;2.84;100.00;99880.47;5094584;28;20886;-76
2022/11/23 07:21:09;;;;;;;30.17;10.57;;;;;;;2.78;100.00;99880.44;5090155;28;20543;-75
2022/11/23 07:23:39;;;;;;;19.97;9.23;;;;;;;2.72;100.00;99880.72;5094161;28;20530;-76
2022/11/23 07:26:06;;;;;;;26.57;11.60;;;;;;;2.67;100.00;99883.41;5079197;28;20996;-76
2022/11/23 07:28:33;;;;;;;22.00;10.23;;;;;;;2.62;100.00;99883.41;5073986;28;20528;-78
2022/11/23 07:30:59;;;;;;;28.47;10.90;;;;;;;2.61;100.00;99885.28;5074416;28;20544;-78
2022/11/23 07:33:27;;;;;;;25.73;11.00;;;;;;;2.65;100.00;99890.88;5074631;28;20477;-78
2022/11/23 07:35:54;;;;;;;22.97;10.20;;;;;;;2.61;100.00;99887.13;5074460;28;20453;-76
2022/11/23 07:38:20;;;;;;;20.00;10.20;;;;;;;2.61;100.00;99890.63;5073872;28;20532;-78
2022/11/23 07:40:50;;;;;;;32.27;11.03;;;;;;;2.58;100.00;99893.00;5074059;28;20524;-77
2022/11/23 07:43:16;;;;;;;27.17;10.83;;;;;;;2.55;100.00;99899.69;5073841;28;20950;-76
2022/11/23 07:45:43;;;;;;;31.97;11.07;;;;;;;2.57;100.00;99904.75;5073686;28;20454;-77
2022/11/23 07:48:11;;;;;;;27.83;11.23;;;;;;;2.58;100.00;99901.84;5074394;28;20532;-78
2022/11/23 07:50:39;;;;;;;28.97;11.00;;;;;;;2.60;100.00;99896.22;5076934;28;20824;-75
2022/11/23 07:53:07;;;;;;;20.27;9.80;;;;;;;2.61;100.00;99909.31;5077178;28;21069;-76
2022/11/23 07:55:34;;;;;;;26.77;11.80;;;;;;;2.68;100.00;99915.19;5077846;28;20822;-78
2022/11/23 07:58:01;;;;;;;20.67;10.23;;;;;;;2.69;100.00;99907.97;5077557;28;20524;-75
2022/11/23 08:00:29;;;;;;;31.60;12.97;;;;;;;2.68;100.00;99907.19;5077890;28;20509;-78
2022/11/23 08:02:57;;;;;;;28.87;12.83;;;;;;;2.71;100.00;99905.88;5077134;28;20521;-77
2022/11/23 08:05:25;;;;;;;29.77;12.70;;;;;;;2.75;100.00;99910.41;5076909;28;20539;-77
2022/11/23 08:07:58;;;;;;;24.60;11.30;;;;;;;2.84;100.00;99909.88;5076911;28;20477;-77
2022/11/23 08:10:25;;;;;;;24.80;10.67;;;;;;;2.87;100.00;99920.84;5076643;28;20439;-76
2022/11/23 08:12:52;;;;;;;27.23;11.80;;;;;;;2.90;100.00;99919.50;5076958;28;20587;-77
2022/11/23 08:15:19;;;;;;;30.53;11.47;;;;;;;2.95;100.00;99919.50;5077432;28;20531;-78
2022/11/23 08:17:45;;;;;;;24.73;10.53;;;;;;;3.04;100.00;99923.25;5077259;28;20532;-75
2022/11/23 08:20:13;;;;;;;26.70;10.90;;;;;;;3.05;100.00;99924.84;5078018;28;20520;-78
2022/11/23 08:22:39;;;;;;;28.40;10.90;;;;;;;3.13;100.00;99920.84;5077892;28;20524;-77
2022/11/23 08:25:08;;;;;;;41.67;11.70;;;;;;;3.19;100.00;99919.78;5077309;28;20544;-78
2022/11/23 08:27:35;;;;;;;27.77;12.03;;;;;;;3.24;100.00;99923.25;5077669;28;20891;-78
2022/11/23 08:30:02;;;;;;;33.40;11.97;;;;;;;3.25;100.00;99914.16;5076274;28;21009;-77
2022/11/23 08:32:28;;;;;;;19.73;9.30;;;;;;;3.32;100.00;99913.91;5075872;28;20992;-77
2022/11/23 08:34:55;;;;;;;20.63;9.13;;;;;;;3.36;100.00;99916.81;5076547;28;20525;-78
2022/11/23 08:37:21;;;;;;;30.23;11.17;;;;;;;3.40;100.00;99920.56;5076189;28;20564;-77
2022/11/23 08:39:48;;;;;;;32.60;12.00;;;;;;;3.49;100.00;99926.97;5076062;28;20536;-78
2022/11/23 08:42:16;;;;;;;26.77;11.00;;;;;;;3.52;100.00;99921.88;5078355;28;20517;-78
2022/11/23 08:44:43;;;;;;;24.93;10.50;;;;;;;3.57;100.00;99925.63;5076221;28;21018;-77
2022/11/23 08:47:09;;;;;;;25.20;10.47;;;;;;;3.64;100.00;99929.63;5076138;28;20461;-77
2022/11/23 08:49:36;;;;;;;21.70;10.67;;;;;;;3.72;100.00;99934.44;5075710;28;20441;-77
2022/11/23 08:52:02;;;;;;;22.50;9.20;;;;;;;3.83;100.00;99926.38;5075975;28;20484;-77
2022/11/23 08:54:29;;;;;;;25.17;10.37;;;;;;;3.86;100.00;99933.88;5075778;28;21009;-78
2022/11/23 08:56:56;;;;;;;23.50;8.90;;;;;;;3.87;100.00;99932.78;5075938;28;20548;-77
2022/11/23 08:59:25;;;;;;;17.43;9.07;;;;;;;3.95;100.00;99937.59;5076002;28;20519;-75
2022/11/23 09:01:51;;;;;;;25.10;11.20;;;;;;;3.98;100.00;99937.03;5073980;28;20532;-77
2022/11/23 09:04:18;;;;;;;26.87;10.43;;;;;;;4.00;100.00;99937.56;5076010;28;20477;-77
2022/11/23 09:06:45;;;;;;;24.83;10.63;;;;;;;3.97;100.00;99940.78;5076317;28;20889;-77
2022/11/23 09:09:11;;;;;;;21.60;10.80;;;;;;;4.09;100.00;99938.59;5077242;28;20520;-78
2022/11/23 09:11:38;;;;;;;22.70;9.20;;;;;;;4.25;100.00;99937.47;5077342;28;20540;-78
2022/11/23 09:14:04;;;;;;;28.80;10.90;;;;;;;4.39;100.00;99939.56;5075931;28;20836;-77
2022/11/23 09:16:32;;;;;;;17.80;8.87;;;;;;;4.50;100.00;99941.91;5075359;28;20556;-78
2022/11/23 09:18:59;;;;;;;33.63;10.60;;;;;;;4.59;100.00;99936.75;5075669;28;20472;-77
2022/11/23 09:21:32;;;;;;;28.53;10.23;;;;;;;4.66;100.00;99931.09;5076661;28;20964;-78
2022/11/23 09:24:01;;;;;;;25.93;10.33;;;;;;;4.65;99.75;99933.00;5077001;28;20440;-78
2022/11/23 09:26:29;;;;;;;20.67;9.50;;;;;;;4.60;99.51;99926.81;5077351;28;20560;-78
2022/11/23 09:28:57;;;;;;;23.87;9.70;;;;;;;4.61;99.13;99929.25;5076856;28;20544;-78
2022/11/23 09:31:27;;;;;;;21.80;10.50;;;;;;;4.56;99.35;99926.59;5076768;28;20442;-79
2022/11/23 09:33:55;;;;;;;18.33;8.53;;;;;;;4.58;99.19;99929.78;5077194;28;20441;-79
2022/11/23 09:36:22;;;;;;;32.20;10.00;;;;;;;4.52;97.99;99925.56;5076947;28;20519;-78
2022/11/23 09:38:49;;;;;;;22.17;9.57;;;;;;;4.52;97.76;99925.56;5076449;28;20456;-78
2022/11/23 09:41:34;;;;;;;19.77;9.27;;;;;;;4.58;97.89;99921.75;5077025;28;20524;-79
2022/11/23 09:44:06;;;;;;;22.47;8.90;;;;;;;4.63;97.29;99915.56;5076458;28;20450;-79
2022/11/23 09:46:42;;;;;;;21.23;9.30;;;;;;;4.69;97.33;99914.44;5076964;28;20854;-79
2022/11/23 09:49:13;;;;;;;20.07;8.87;;;;;;;4.73;97.13;99915.47;5077061;28;20516;-79
2022/11/23 09:51:42;;;;;;;22.77;8.90;;;;;;;4.77;98.24;99921.88;5077245;28;20457;-79
2022/11/23 09:54:22;;;;;;;22.83;8.90;;;;;;;4.95;98.16;99920.44;5077298;28;21037;-79
2022/11/23 09:56:50;;;;;;;22.03;9.07;;;;;;;5.07;98.37;99923.56;5074947;28;20552;-76
2022/11/23 09:59:27;;;;;;;20.70;8.33;;;;;;;5.18;98.06;99917.03;5074659;28;20481;-77
2022/11/23 10:01:54;;;;;;;22.80;9.90;;;;;;;5.32;97.29;99917.19;5074628;28;20426;-77
2022/11/23 10:04:23;;;;;;;18.63;8.60;;;;;;;5.46;96.64;99914.63;5074197;28;21002;-77
2022/11/23 10:06:57;;;;;;;19.10;7.80;;;;;;;5.53;95.71;99920.47;5074421;28;20553;-77
2022/11/23 10:09:41;;;;;;;22.00;9.60;;;;;;;5.71;94.72;99911.69;5074706;28;20454;-77
2022/11/23 10:12:24;;;;;;;19.33;9.07;;;;;;;5.91;93.93;99913.34;5073815;28;20481;-76
2022/11/23 10:14:59;;;;;;;15.43;6.93;;;;;;;6.06;92.95;99909.69;5073926;28;20816;-76
2022/11/23 10:17:43;;;;;;;14.80;7.27;;;;;;;6.19;91.58;99924.34;5074325;28;20519;-77
2022/11/23 10:26:46;;;;;;;19.93;7.17;;;;;;;6.45;91.02;99911.34;5064796;28;20460;-77
2022/11/23 10:29:24;;;;;;;17.93;8.53;;;;;;;6.52;91.56;99909.13;5073867;28;20517;-77
2022/11/23 10:32:02;;;;;;;;;;;;;;;;;;;;;
2022/11/23 10:34:48;;;;;;;18.73;8.13;;;;;;;6.64;91.28;99896.03;5073477;28;20452;-77
2022/11/23 10:37:29;;;;;;;15.57;7.00;;;;;;;6.83;91.33;99899.50;5073837;28;20458;-77
2022/11/23 10:40:03;;;;;;;23.53;7.13;;;;;;;6.88;91.32;99887.84;5074194;28;20477;-77
2022/11/23 10:42:38;;;;;;;17.00;7.40;;;;;;;7.01;91.18;99897.06;5073896;28;20421;-77
2022/11/23 10:45:08;;;;;;;16.93;6.63;;;;;;;6.97;90.88;99896.84;5073890;28;20428;-77
2022/11/23 10:47:41;;;;;;;21.20;7.27;;;;;;;7.16;90.65;99901.41;5073739;28;20540;-76
2022/11/23 10:50:28;;;;;;;13.00;5.20;;;;;;;7.17;90.75;99894.91;5073719;28;20429;-77
2022/11/23 10:52:59;;;;;;;15.80;6.80;;;;;;;7.09;90.39;99893.72;5073417;28;20549;-75
2022/11/23 10:55:56;;;;;;;12.57;5.90;;;;;;;7.17;90.43;99893.03;5073146;28;20994;-75
2022/11/23 10:58:44;;;;;;;;;;;;;;;;;;;;;
2022/11/23 11:01:21;;;;;;;16.90;6.30;;;;;;;7.25;88.91;99921.19;5021952;28;20456;-78
2022/11/23 11:03:53;;;;;;;22.80;6.77;;;;;;;7.17;88.71;99903.81;5074820;28;20479;-78
2022/11/23 11:06:26;;;;;;;12.90;6.73;;;;;;;7.16;88.76;99909.47;5074862;28;20497;-78
2022/11/23 11:09:04;;;;;;;13.10;5.80;;;;;;;7.31;88.97;99911.94;5075032;28;20433;-79
2022/11/23 11:11:54;;;;;;;14.00;5.30;;;;;;;7.36;87.85;99913.75;5073725;28;20498;-77
2022/11/23 11:17:56;;;;;;;14.13;5.73;;;;;;;7.47;88.06;99907.06;5068542;28;20469;-79
2022/11/23 11:22:59;;;;;;;12.50;5.80;;;;;;;7.61;88.07;99901.69;5111203;28;20532;-65
2022/11/23 11:25:29;;;;;;;10.10;5.10;;;;;;;7.66;87.70;99905.09;5112610;28;20940;-66
2022/11/23 11:27:58;;;;;;;17.03;6.30;;;;;;;7.68;87.40;99899.41;5114087;28;20810;-66
2022/11/23 11:30:29;;;;;;;15.03;6.37;;;;;;;7.70;87.65;99895.34;5113643;28;20439;-65
2022/11/23 11:33:05;;;;;;;24.73;7.23;;;;;;;7.81;87.88;99896.72;5113295;28;21059;-67
2022/11/23 11:35:37;;;;;;;18.80;6.00;;;;;;;7.85;87.80;99888.84;5113735;28;20447;-67
2022/11/23 11:38:12;;;;;;;17.43;5.33;;;;;;;7.92;87.83;99881.13;5113622;28;20416;-67
2022/11/23 11:40:45;;;;;;;15.07;6.20;;;;;;;7.93;87.65;99885.44;5113875;28;20854;-67
2022/11/23 11:43:19;;;;;;;18.33;6.40;;;;;;;7.86;87.82;99890.44;5113505;28;20487;-68